Station Historical Data
Daily Summary for July 16, 2017 Units:  Both    English   Metric
« Previous Day
Next Day »
Daily Weekly Monthly Yearly Custom
  High: Low: Average:
Temperature: 80.7 °F /  27.1 °C 63.3 °F /  17.4 °C 72.4 °F /  22.4 °C
Dew Point: 66.1 °F /  18.9 °C 59.6 °F /  15.3 °C 62.9 °F /  17.2 °C
Humidity: 93% 55% 74%
Wind Speed: 12.0mph /  19.3km/h - 2.7mph /  4.3km/h
Wind Gust: 16.0mph /  25.7km/h - -
Wind- - SW
Pressure: 29.97 in /  1014.8 hPa 29.90 in /  1012.4 hPa -
Precipitation: 0.00 in /  0 mm    
Historical Graphs
 
 
Tabular Data for July 16, 2017
Time Temperature Dew Point Pressure Wind Wind Speed Wind Gust Humidity Rainfall Rate (Hourly)
00:04 67.9 °F /  19.9 °C 62.5 °F /  16.9 °C 29.95in /  1014.1hPa Calm     83% 0.00in /  0mm
00:09 67.5 °F /  19.7 °C 62.2 °F /  16.8 °C 29.95in /  1014.1hPa Calm     83% 0.00in /  0mm
00:14 67.0 °F /  19.4 °C 61.7 °F /  16.5 °C 29.95in /  1014.1hPa Calm     83% 0.00in /  0mm
00:19 66.6 °F /  19.2 °C 61.3 °F /  16.3 °C 29.95in /  1014.1hPa Calm     83% 0.00in /  0mm
00:24 66.5 °F /  19.2 °C 61.5 °F /  16.4 °C 29.95in /  1014.1hPa Calm     84% 0.00in /  0mm
00:29 66.2 °F /  19 °C 60.9 °F /  16.1 °C 29.95in /  1014.1hPa Calm     83% 0.00in /  0mm
00:34 65.9 °F /  18.8 °C 60.9 °F /  16.1 °C 29.95in /  1014.1hPa Calm     84% 0.00in /  0mm
00:39 65.6 °F /  18.7 °C 60.6 °F /  15.9 °C 29.95in /  1014.1hPa Calm     84% 0.00in /  0mm
00:44 65.5 °F /  18.6 °C 60.5 °F /  15.8 °C 29.95in /  1014.1hPa Calm     84% 0.00in /  0mm
00:49 65.1 °F /  18.4 °C 60.1 °F /  15.6 °C 29.95in /  1014.1hPa Calm     84% 0.00in /  0mm
00:54 64.9 °F /  18.3 °C 60.3 °F /  15.7 °C 29.95in /  1014.1hPa Calm     85% 0.00in /  0mm
00:59 64.7 °F /  18.2 °C 60.1 °F /  15.6 °C 29.95in /  1014.1hPa Calm     85% 0.00in /  0mm
01:04 64.5 °F /  18.1 °C 59.9 °F /  15.5 °C 29.95in /  1014.1hPa Calm     85% 0.00in /  0mm
01:09 64.2 °F /  17.9 °C 59.6 °F /  15.3 °C 29.95in /  1014.1hPa Calm     85% 0.00in /  0mm
01:14 64.3 °F /  17.9 °C 60.0 °F /  15.6 °C 29.95in /  1014.1hPa Calm     86% 0.00in /  0mm
01:19 64.5 °F /  18.1 °C 60.5 °F /  15.8 °C 29.95in /  1014.1hPa Calm     87% 0.00in /  0mm
01:24 64.5 °F /  18.1 °C 60.9 °F /  16.1 °C 29.95in /  1014.1hPa Calm     88% 0.00in /  0mm
01:29 64.5 °F /  18.1 °C 61.2 °F /  16.2 °C 29.95in /  1014.1hPa Calm     89% 0.00in /  0mm
01:34 64.5 °F /  18.1 °C 61.2 °F /  16.2 °C 29.96in /  1014.4hPa Calm     89% 0.00in /  0mm
01:39 64.5 °F /  18.1 °C 61.2 °F /  16.2 °C 29.96in /  1014.4hPa Calm     89% 0.00in /  0mm
01:44 64.3 °F /  17.9 °C 61.3 °F /  16.3 °C 29.96in /  1014.4hPa Calm     90% 0.00in /  0mm
01:49 64.1 °F /  17.8 °C 61.1 °F /  16.2 °C 29.96in /  1014.4hPa Calm     90% 0.00in /  0mm
01:54 64.1 °F /  17.8 °C 61.1 °F /  16.2 °C 29.96in /  1014.4hPa Calm     90% 0.00in /  0mm
01:59 64.4 °F /  18 °C 61.7 °F /  16.5 °C 29.96in /  1014.4hPa Calm     91% 0.00in /  0mm
02:04 64.5 °F /  18.1 °C 61.8 °F /  16.6 °C 29.96in /  1014.4hPa Calm     91% 0.00in /  0mm
02:09 64.3 °F /  17.9 °C 61.6 °F /  16.4 °C 29.96in /  1014.4hPa Calm     91% 0.00in /  0mm
02:14 64.1 °F /  17.8 °C 61.4 °F /  16.3 °C 29.96in /  1014.4hPa Calm     91% 0.00in /  0mm
02:19 64.0 °F /  17.8 °C 61.6 °F /  16.4 °C 29.95in /  1014.1hPa Calm     92% 0.00in /  0mm
02:24 63.9 °F /  17.7 °C 61.2 °F /  16.2 °C 29.96in /  1014.4hPa Calm     91% 0.00in /  0mm
02:29 63.8 °F /  17.7 °C 61.1 °F /  16.2 °C 29.96in /  1014.4hPa Calm     91% 0.00in /  0mm
02:34 63.6 °F /  17.6 °C 61.2 °F /  16.2 °C 29.95in /  1014.1hPa Calm     92% 0.00in /  0mm
02:39 63.5 °F /  17.5 °C 61.1 °F /  16.2 °C 29.95in /  1014.1hPa Calm     92% 0.00in /  0mm
02:44 63.3 °F /  17.4 °C 60.9 °F /  16.1 °C 29.95in /  1014.1hPa Calm     92% 0.00in /  0mm
02:49 63.8 °F /  17.7 °C 61.7 °F /  16.5 °C 29.95in /  1014.1hPa Calm     93% 0.00in /  0mm
02:54 64.0 °F /  17.8 °C 61.6 °F /  16.4 °C 29.95in /  1014.1hPa Calm     92% 0.00in /  0mm
02:59 64.1 °F /  17.8 °C 62.0 °F /  16.7 °C 29.95in /  1014.1hPa Calm     93% 0.00in /  0mm
03:04 64.1 °F /  17.8 °C 61.7 °F /  16.5 °C 29.95in /  1014.1hPa Calm     92% 0.00in /  0mm
03:09 64.4 °F /  18 °C 62.3 °F /  16.8 °C 29.95in /  1014.1hPa Calm     93% 0.00in /  0mm
03:14 64.5 °F /  18.1 °C 62.4 °F /  16.9 °C 29.95in /  1014.1hPa Calm     93% 0.00in /  0mm
03:19 64.7 °F /  18.2 °C 62.6 °F /  17 °C 29.95in /  1014.1hPa Calm     93% 0.00in /  0mm
03:24 65.2 °F /  18.4 °C 63.1 °F /  17.3 °C 29.95in /  1014.1hPa Calm     93% 0.00in /  0mm
03:29 65.6 °F /  18.7 °C 63.5 °F /  17.5 °C 29.95in /  1014.1hPa Calm     93% 0.00in /  0mm
03:34 65.9 °F /  18.8 °C 63.8 °F /  17.7 °C 29.95in /  1014.1hPa Calm     93% 0.00in /  0mm
03:39 66.0 °F /  18.9 °C 63.9 °F /  17.7 °C 29.95in /  1014.1hPa Calm     93% 0.00in /  0mm
03:44 66.1 °F /  18.9 °C 64.0 °F /  17.8 °C 29.95in /  1014.1hPa Calm     93% 0.00in /  0mm
03:49 65.9 °F /  18.8 °C 63.5 °F /  17.5 °C 29.95in /  1014.1hPa Calm     92% 0.00in /  0mm
03:54 65.8 °F /  18.8 °C 63.7 °F /  17.6 °C 29.95in /  1014.1hPa Calm     93% 0.00in /  0mm
03:59 66.1 °F /  18.9 °C 63.7 °F /  17.6 °C 29.95in /  1014.1hPa Calm   3.0mph /  4.8km/h 92% 0.00in /  0mm
04:04 66.2 °F /  19 °C 63.8 °F /  17.7 °C 29.95in /  1014.1hPa SSW 2.0mph /  3.2km/h 5.0mph /  8km/h 92% 0.00in /  0mm
04:09 66.3 °F /  19.1 °C 63.9 °F /  17.7 °C 29.95in /  1014.1hPa Calm   4.0mph /  6.4km/h 92% 0.00in /  0mm
04:14 66.4 °F /  19.1 °C 64.0 °F /  17.8 °C 29.95in /  1014.1hPa Calm   3.0mph /  4.8km/h 92% 0.00in /  0mm
04:19 66.3 °F /  19.1 °C 63.9 °F /  17.7 °C 29.95in /  1014.1hPa SSW 1.0mph /  1.6km/h 4.0mph /  6.4km/h 92% 0.00in /  0mm
04:24 66.4 °F /  19.1 °C 64.0 °F /  17.8 °C 29.95in /  1014.1hPa SSW 1.0mph /  1.6km/h 4.0mph /  6.4km/h 92% 0.00in /  0mm
04:29 66.4 °F /  19.1 °C 63.7 °F /  17.6 °C 29.95in /  1014.1hPa SSW 3.0mph /  4.8km/h 6.0mph /  9.7km/h 91% 0.00in /  0mm
04:34 66.4 °F /  19.1 °C 63.7 °F /  17.6 °C 29.95in /  1014.1hPa SSW 2.0mph /  3.2km/h 7.0mph /  11.3km/h 91% 0.00in /  0mm
04:39 66.7 °F /  19.3 °C 64.0 °F /  17.8 °C 29.95in /  1014.1hPa SSW 1.0mph /  1.6km/h 6.0mph /  9.7km/h 91% 0.00in /  0mm
04:44 66.7 °F /  19.3 °C 64.0 °F /  17.8 °C 29.95in /  1014.1hPa SW 3.0mph /  4.8km/h 4.0mph /  6.4km/h 91% 0.00in /  0mm
04:49 66.8 °F /  19.3 °C 64.1 °F /  17.8 °C 29.96in /  1014.4hPa SSW 2.0mph /  3.2km/h 5.0mph /  8km/h 91% 0.00in /  0mm
04:54 66.9 °F /  19.4 °C 64.2 °F /  17.9 °C 29.96in /  1014.4hPa SSW 2.0mph /  3.2km/h 9.0mph /  14.5km/h 91% 0.00in /  0mm
04:59 67.1 °F /  19.5 °C 64.1 °F /  17.8 °C 29.96in /  1014.4hPa SSW 3.0mph /  4.8km/h 9.0mph /  14.5km/h 90% 0.00in /  0mm
05:04 66.9 °F /  19.4 °C 63.9 °F /  17.7 °C 29.96in /  1014.4hPa SSW 3.0mph /  4.8km/h 7.0mph /  11.3km/h 90% 0.00in /  0mm
05:09 66.6 °F /  19.2 °C 63.3 °F /  17.4 °C 29.96in /  1014.4hPa SSW 3.0mph /  4.8km/h 6.0mph /  9.7km/h 89% 0.00in /  0mm
05:14 66.3 °F /  19.1 °C 63.0 °F /  17.2 °C 29.96in /  1014.4hPa SSW 2.0mph /  3.2km/h 5.0mph /  8km/h 89% 0.00in /  0mm
05:19 66.0 °F /  18.9 °C 62.7 °F /  17.1 °C 29.96in /  1014.4hPa SSW 3.0mph /  4.8km/h 6.0mph /  9.7km/h 89% 0.00in /  0mm
05:24 65.6 °F /  18.7 °C 62.3 °F /  16.8 °C 29.96in /  1014.4hPa SSW 1.0mph /  1.6km/h 5.0mph /  8km/h 89% 0.00in /  0mm
05:29 65.4 °F /  18.6 °C 62.1 °F /  16.7 °C 29.96in /  1014.4hPa SSW 3.0mph /  4.8km/h 4.0mph /  6.4km/h 89% 0.00in /  0mm
05:34 65.2 °F /  18.4 °C 61.9 °F /  16.6 °C 29.96in /  1014.4hPa SSW 2.0mph /  3.2km/h 5.0mph /  8km/h 89% 0.00in /  0mm
05:39 65.0 °F /  18.3 °C 61.7 °F /  16.5 °C 29.97in /  1014.8hPa SSW 2.0mph /  3.2km/h 6.0mph /  9.7km/h 89% 0.00in /  0mm
05:44 64.8 °F /  18.2 °C 61.2 °F /  16.2 °C 29.96in /  1014.4hPa Calm   5.0mph /  8km/h 88% 0.00in /  0mm
05:49 64.8 °F /  18.2 °C 61.5 °F /  16.4 °C 29.97in /  1014.8hPa SSW 2.0mph /  3.2km/h 5.0mph /  8km/h 89% 0.00in /  0mm
05:54 64.8 °F /  18.2 °C 61.2 °F /  16.2 °C 29.97in /  1014.8hPa SW 2.0mph /  3.2km/h 6.0mph /  9.7km/h 88% 0.00in /  0mm
05:59 64.7 °F /  18.2 °C 61.1 °F /  16.2 °C 29.97in /  1014.8hPa SSW 3.0mph /  4.8km/h 6.0mph /  9.7km/h 88% 0.00in /  0mm
06:04 64.6 °F /  18.1 °C 61.0 °F /  16.1 °C 29.97in /  1014.8hPa SSW 2.0mph /  3.2km/h 5.0mph /  8km/h 88% 0.00in /  0mm
06:09 64.5 °F /  18.1 °C 60.9 °F /  16.1 °C 29.97in /  1014.8hPa SW 5.0mph /  8km/h 5.0mph /  8km/h 88% 0.00in /  0mm
06:14 64.5 °F /  18.1 °C 60.9 °F /  16.1 °C 29.97in /  1014.8hPa SSW 2.0mph /  3.2km/h 5.0mph /  8km/h 88% 0.00in /  0mm
06:19 64.7 °F /  18.2 °C 61.1 °F /  16.2 °C 29.97in /  1014.8hPa SSW 2.0mph /  3.2km/h 5.0mph /  8km/h 88% 0.00in /  0mm
06:24 64.9 °F /  18.3 °C 60.9 °F /  16.1 °C 29.96in /  1014.4hPa SSW 1.0mph /  1.6km/h 5.0mph /  8km/h 87% 0.00in /  0mm
06:29 65.1 °F /  18.4 °C 61.1 °F /  16.2 °C 29.97in /  1014.8hPa South 3.0mph /  4.8km/h 5.0mph /  8km/h 87% 0.00in /  0mm
06:34 65.2 °F /  18.4 °C 61.2 °F /  16.2 °C 29.97in /  1014.8hPa SSW 3.0mph /  4.8km/h 4.0mph /  6.4km/h 87% 0.00in /  0mm
06:39 65.2 °F /  18.4 °C 60.9 °F /  16.1 °C 29.97in /  1014.8hPa SSW 2.0mph /  3.2km/h 6.0mph /  9.7km/h 86% 0.00in /  0mm
06:44 65.2 °F /  18.4 °C 60.9 °F /  16.1 °C 29.97in /  1014.8hPa SSW 1.0mph /  1.6km/h 6.0mph /  9.7km/h 86% 0.00in /  0mm
06:49 65.3 °F /  18.5 °C 61.0 °F /  16.1 °C 29.97in /  1014.8hPa SSW 2.0mph /  3.2km/h 4.0mph /  6.4km/h 86% 0.00in /  0mm
06:54 65.4 °F /  18.6 °C 61.1 °F /  16.2 °C 29.97in /  1014.8hPa SW 2.0mph /  3.2km/h 4.0mph /  6.4km/h 86% 0.00in /  0mm
06:59 65.4 °F /  18.6 °C 61.1 °F /  16.2 °C 29.96in /  1014.4hPa Calm   4.0mph /  6.4km/h 86% 0.00in /  0mm
07:04 65.4 °F /  18.6 °C 61.1 °F /  16.2 °C 29.96in /  1014.4hPa Calm     86% 0.00in /  0mm
07:09 65.4 °F /  18.6 °C 61.1 °F /  16.2 °C 29.96in /  1014.4hPa Calm     86% 0.00in /  0mm
07:14 65.7 °F /  18.7 °C 61.4 °F /  16.3 °C 29.96in /  1014.4hPa Calm     86% 0.00in /  0mm
07:19 65.9 °F /  18.8 °C 61.3 °F /  16.3 °C 29.96in /  1014.4hPa Calm     85% 0.00in /  0mm
07:24 66.3 °F /  19.1 °C 61.7 °F /  16.5 °C 29.96in /  1014.4hPa Calm     85% 0.00in /  0mm
07:29 66.3 °F /  19.1 °C 61.3 °F /  16.3 °C 29.96in /  1014.4hPa SSW 1.0mph /  1.6km/h 5.0mph /  8km/h 84% 0.00in /  0mm
07:34 66.2 °F /  19 °C 60.9 °F /  16.1 °C 29.96in /  1014.4hPa SSW 2.0mph /  3.2km/h 4.0mph /  6.4km/h 83% 0.00in /  0mm
07:39 66.1 °F /  18.9 °C 61.1 °F /  16.2 °C 29.96in /  1014.4hPa South 1.0mph /  1.6km/h 3.0mph /  4.8km/h 84% 0.00in /  0mm
07:44 66.6 °F /  19.2 °C 61.3 °F /  16.3 °C 29.96in /  1014.4hPa South 1.0mph /  1.6km/h 3.0mph /  4.8km/h 83% 0.00in /  0mm
07:49 67.2 °F /  19.6 °C 61.5 °F /  16.4 °C 29.96in /  1014.4hPa South 1.0mph /  1.6km/h 4.0mph /  6.4km/h 82% 0.00in /  0mm
07:54 67.9 °F /  19.9 °C 62.2 °F /  16.8 °C 29.96in /  1014.4hPa Calm   4.0mph /  6.4km/h 82% 0.00in /  0mm
07:59 68.5 °F /  20.3 °C 61.7 °F /  16.5 °C 29.96in /  1014.4hPa SSW 3.0mph /  4.8km/h 4.0mph /  6.4km/h 79% 0.00in /  0mm
08:04 68.4 °F /  20.2 °C 61.3 °F /  16.3 °C 29.96in /  1014.4hPa South 5.0mph /  8km/h 6.0mph /  9.7km/h 78% 0.00in /  0mm
08:09 68.8 °F /  20.4 °C 61.3 °F /  16.3 °C 29.96in /  1014.4hPa SSW 3.0mph /  4.8km/h 6.0mph /  9.7km/h 77% 0.00in /  0mm
08:14 69.6 °F /  20.9 °C 61.7 °F /  16.5 °C 29.96in /  1014.4hPa SW 3.0mph /  4.8km/h 7.0mph /  11.3km/h 76% 0.00in /  0mm
08:19 70.0 °F /  21.1 °C 61.7 °F /  16.5 °C 29.96in /  1014.4hPa SW 3.0mph /  4.8km/h 8.0mph /  12.9km/h 75% 0.00in /  0mm
08:24 70.5 °F /  21.4 °C 61.8 °F /  16.6 °C 29.96in /  1014.4hPa SW 3.0mph /  4.8km/h 8.0mph /  12.9km/h 74% 0.00in /  0mm
08:29 70.5 °F /  21.4 °C 61.4 °F /  16.3 °C 29.96in /  1014.4hPa SW 3.0mph /  4.8km/h 6.0mph /  9.7km/h 73% 0.00in /  0mm
08:34 70.8 °F /  21.6 °C 61.7 °F /  16.5 °C 29.96in /  1014.4hPa SW 3.0mph /  4.8km/h 7.0mph /  11.3km/h 73% 0.00in /  0mm
08:39 71.5 °F /  21.9 °C 62.0 °F /  16.7 °C 29.96in /  1014.4hPa SW 3.0mph /  4.8km/h 7.0mph /  11.3km/h 72% 0.00in /  0mm
08:44 71.5 °F /  21.9 °C 61.6 °F /  16.4 °C 29.96in /  1014.4hPa SSW 2.0mph /  3.2km/h 7.0mph /  11.3km/h 71% 0.00in /  0mm
08:49 71.8 °F /  22.1 °C 61.5 °F /  16.4 °C 29.96in /  1014.4hPa WSW 7.0mph /  11.3km/h 8.0mph /  12.9km/h 70% 0.00in /  0mm
08:54 72.0 °F /  22.2 °C 61.7 °F /  16.5 °C 29.96in /  1014.4hPa SSW 3.0mph /  4.8km/h 8.0mph /  12.9km/h 70% 0.00in /  0mm
08:59 72.4 °F /  22.4 °C 61.7 °F /  16.5 °C 29.96in /  1014.4hPa SW 2.0mph /  3.2km/h 6.0mph /  9.7km/h 69% 0.00in /  0mm
09:04 72.8 °F /  22.7 °C 62.0 °F /  16.7 °C 29.96in /  1014.4hPa SSW 2.0mph /  3.2km/h 10.0mph /  16.1km/h 69% 0.00in /  0mm
09:09 72.9 °F /  22.7 °C 61.3 °F /  16.3 °C 29.95in /  1014.1hPa SW 4.0mph /  6.4km/h 10.0mph /  16.1km/h 67% 0.00in /  0mm
09:14 73.3 °F /  22.9 °C 62.1 °F /  16.7 °C 29.96in /  1014.4hPa WSW 4.0mph /  6.4km/h 7.0mph /  11.3km/h 68% 0.00in /  0mm
09:19 74.0 °F /  23.3 °C 62.8 °F /  17.1 °C 29.95in /  1014.1hPa SW 4.0mph /  6.4km/h 7.0mph /  11.3km/h 68% 0.00in /  0mm
09:24 73.7 °F /  23.2 °C 61.2 °F /  16.2 °C 29.95in /  1014.1hPa SW 4.0mph /  6.4km/h 9.0mph /  14.5km/h 65% 0.00in /  0mm
09:29 73.7 °F /  23.2 °C 61.2 °F /  16.2 °C 29.95in /  1014.1hPa SW 5.0mph /  8km/h 10.0mph /  16.1km/h 65% 0.00in /  0mm
09:34 73.7 °F /  23.2 °C 61.2 °F /  16.2 °C 29.94in /  1013.8hPa SSW 6.0mph /  9.7km/h 10.0mph /  16.1km/h 65% 0.00in /  0mm
09:39 74.0 °F /  23.3 °C 61.5 °F /  16.4 °C 29.94in /  1013.8hPa SW 5.0mph /  8km/h 10.0mph /  16.1km/h 65% 0.00in /  0mm
09:44 74.0 °F /  23.3 °C 61.5 °F /  16.4 °C 29.95in /  1014.1hPa SSW 5.0mph /  8km/h 9.0mph /  14.5km/h 65% 0.00in /  0mm
09:49 74.5 °F /  23.6 °C 62.0 °F /  16.7 °C 29.94in /  1013.8hPa WNW 3.0mph /  4.8km/h 9.0mph /  14.5km/h 65% 0.00in /  0mm
09:54 74.8 °F /  23.8 °C 61.4 °F /  16.3 °C 29.94in /  1013.8hPa SW 6.0mph /  9.7km/h 9.0mph /  14.5km/h 63% 0.00in /  0mm
09:59 74.9 °F /  23.8 °C 61.0 °F /  16.1 °C 29.94in /  1013.8hPa SW 4.0mph /  6.4km/h 10.0mph /  16.1km/h 62% 0.00in /  0mm
10:04 75.1 °F /  23.9 °C 61.6 °F /  16.4 °C 29.94in /  1013.8hPa SSW 7.0mph /  11.3km/h 9.0mph /  14.5km/h 63% 0.00in /  0mm
10:09 75.5 °F /  24.2 °C 61.6 °F /  16.4 °C 29.94in /  1013.8hPa SW 4.0mph /  6.4km/h 10.0mph /  16.1km/h 62% 0.00in /  0mm
10:14 75.4 °F /  24.1 °C 61.9 °F /  16.6 °C 29.94in /  1013.8hPa SW 5.0mph /  8km/h 11.0mph /  17.7km/h 63% 0.00in /  0mm
10:19 75.8 °F /  24.3 °C 61.4 °F /  16.3 °C 29.94in /  1013.8hPa WSW 5.0mph /  8km/h 11.0mph /  17.7km/h 61% 0.00in /  0mm
10:24 75.6 °F /  24.2 °C 61.7 °F /  16.5 °C 29.94in /  1013.8hPa WSW 2.0mph /  3.2km/h 10.0mph /  16.1km/h 62% 0.00in /  0mm
10:29 76.1 °F /  24.5 °C 62.6 °F /  17 °C 29.94in /  1013.8hPa SSW 6.0mph /  9.7km/h 10.0mph /  16.1km/h 63% 0.00in /  0mm
10:34 76.8 °F /  24.9 °C 62.3 °F /  16.8 °C 29.94in /  1013.8hPa WSW 2.0mph /  3.2km/h 7.0mph /  11.3km/h 61% 0.00in /  0mm
10:39 77.1 °F /  25.1 °C 62.1 °F /  16.7 °C 29.94in /  1013.8hPa West 6.0mph /  9.7km/h 7.0mph /  11.3km/h 60% 0.00in /  0mm
10:44 77.2 °F /  25.1 °C 62.2 °F /  16.8 °C 29.94in /  1013.8hPa WSW 4.0mph /  6.4km/h 7.0mph /  11.3km/h 60% 0.00in /  0mm
10:49 76.9 °F /  24.9 °C 61.5 °F /  16.4 °C 29.94in /  1013.8hPa WSW 4.0mph /  6.4km/h 10.0mph /  16.1km/h 59% 0.00in /  0mm
10:54 77.4 °F /  25.2 °C 62.4 °F /  16.9 °C 29.94in /  1013.8hPa WSW 5.0mph /  8km/h 12.0mph /  19.3km/h 60% 0.00in /  0mm
10:59 77.5 °F /  25.3 °C 63.0 °F /  17.2 °C 29.94in /  1013.8hPa SW 5.0mph /  8km/h 12.0mph /  19.3km/h 61% 0.00in /  0mm
11:04 78.0 °F /  25.6 °C 63.0 °F /  17.2 °C 29.94in /  1013.8hPa SW 4.0mph /  6.4km/h 8.0mph /  12.9km/h 60% 0.00in /  0mm
11:09 78.5 °F /  25.8 °C 63.0 °F /  17.2 °C 29.95in /  1014.1hPa SW 3.0mph /  4.8km/h 6.0mph /  9.7km/h 59% 0.00in /  0mm
11:14 79.3 °F /  26.3 °C 63.7 °F /  17.6 °C 29.94in /  1013.8hPa SW 4.0mph /  6.4km/h 9.0mph /  14.5km/h 59% 0.00in /  0mm
11:19 78.9 °F /  26.1 °C 62.4 °F /  16.9 °C 29.94in /  1013.8hPa WSW 1.0mph /  1.6km/h 10.0mph /  16.1km/h 57% 0.00in /  0mm
11:24 77.7 °F /  25.4 °C 63.2 °F /  17.3 °C 29.94in /  1013.8hPa WSW 3.0mph /  4.8km/h 9.0mph /  14.5km/h 61% 0.00in /  0mm
11:29 78.3 °F /  25.7 °C 64.2 °F /  17.9 °C 29.95in /  1014.1hPa WSW 10.0mph /  16.1km/h 10.0mph /  16.1km/h 62% 0.00in /  0mm
11:34 78.2 °F /  25.7 °C 63.2 °F /  17.3 °C 29.94in /  1013.8hPa WSW 3.0mph /  4.8km/h 11.0mph /  17.7km/h 60% 0.00in /  0mm
11:39 78.0 °F /  25.6 °C 63.0 °F /  17.2 °C 29.94in /  1013.8hPa SW 6.0mph /  9.7km/h 12.0mph /  19.3km/h 60% 0.00in /  0mm
11:44 77.7 °F /  25.4 °C 62.2 °F /  16.8 °C 29.94in /  1013.8hPa SW 6.0mph /  9.7km/h 12.0mph /  19.3km/h 59% 0.00in /  0mm
11:49 77.7 °F /  25.4 °C 62.2 °F /  16.8 °C 29.94in /  1013.8hPa WSW 6.0mph /  9.7km/h 12.0mph /  19.3km/h 59% 0.00in /  0mm
11:54 78.3 °F /  25.7 °C 63.3 °F /  17.4 °C 29.94in /  1013.8hPa WSW 6.0mph /  9.7km/h 12.0mph /  19.3km/h 60% 0.00in /  0mm
11:59 78.4 °F /  25.8 °C 62.9 °F /  17.2 °C 29.94in /  1013.8hPa West 5.0mph /  8km/h 12.0mph /  19.3km/h 59% 0.00in /  0mm
12:04 78.7 °F /  25.9 °C 63.2 °F /  17.3 °C 29.94in /  1013.8hPa WNW 6.0mph /  9.7km/h 10.0mph /  16.1km/h 59% 0.00in /  0mm
12:09 78.6 °F /  25.9 °C 63.6 °F /  17.6 °C 29.95in /  1014.1hPa WSW 5.0mph /  8km/h 10.0mph /  16.1km/h 60% 0.00in /  0mm
12:14 78.9 °F /  26.1 °C 63.4 °F /  17.4 °C 29.95in /  1014.1hPa West 5.0mph /  8km/h 10.0mph /  16.1km/h 59% 0.00in /  0mm
12:19 79.6 °F /  26.4 °C 65.0 °F /  18.3 °C 29.95in /  1014.1hPa SW 10.0mph /  16.1km/h 11.0mph /  17.7km/h 61% 0.00in /  0mm
12:24 79.2 °F /  26.2 °C 64.6 °F /  18.1 °C 29.95in /  1014.1hPa NW 5.0mph /  8km/h 10.0mph /  16.1km/h 61% 0.00in /  0mm
12:29 78.4 °F /  25.8 °C 63.8 °F /  17.7 °C 29.95in /  1014.1hPa West 6.0mph /  9.7km/h 13.0mph /  20.9km/h 61% 0.00in /  0mm
12:34 77.6 °F /  25.3 °C 63.5 °F /  17.5 °C 29.95in /  1014.1hPa SW 5.0mph /  8km/h 14.0mph /  22.5km/h 62% 0.00in /  0mm
12:39 77.5 °F /  25.3 °C 64.4 °F /  18 °C 29.95in /  1014.1hPa WSW 5.0mph /  8km/h 14.0mph /  22.5km/h 64% 0.00in /  0mm
12:44 78.0 °F /  25.6 °C 63.9 °F /  17.7 °C 29.95in /  1014.1hPa WSW 5.0mph /  8km/h 9.0mph /  14.5km/h 62% 0.00in /  0mm
12:49 78.5 °F /  25.8 °C 63.9 °F /  17.7 °C 29.95in /  1014.1hPa SSW 6.0mph /  9.7km/h 11.0mph /  17.7km/h 61% 0.00in /  0mm
12:54 78.0 °F /  25.6 °C 64.4 °F /  18 °C 29.95in /  1014.1hPa West 4.0mph /  6.4km/h 11.0mph /  17.7km/h 63% 0.00in /  0mm
12:59 79.0 °F /  26.1 °C 65.3 °F /  18.5 °C 29.94in /  1013.8hPa West 6.0mph /  9.7km/h 12.0mph /  19.3km/h 63% 0.00in /  0mm
13:04 79.9 °F /  26.6 °C 64.8 °F /  18.2 °C 29.94in /  1013.8hPa WSW 5.0mph /  8km/h 12.0mph /  19.3km/h 60% 0.00in /  0mm
13:09 79.0 °F /  26.1 °C 64.4 °F /  18 °C 29.94in /  1013.8hPa WSW 5.0mph /  8km/h 11.0mph /  17.7km/h 61% 0.00in /  0mm
13:14 79.0 °F /  26.1 °C 64.9 °F /  18.3 °C 29.94in /  1013.8hPa WSW 5.0mph /  8km/h 11.0mph /  17.7km/h 62% 0.00in /  0mm
13:19 78.5 °F /  25.8 °C 65.3 °F /  18.5 °C 29.94in /  1013.8hPa WSW 6.0mph /  9.7km/h 11.0mph /  17.7km/h 64% 0.00in /  0mm
13:24 78.9 °F /  26.1 °C 65.2 °F /  18.4 °C 29.94in /  1013.8hPa West 7.0mph /  11.3km/h 12.0mph /  19.3km/h 63% 0.00in /  0mm
13:29 78.9 °F /  26.1 °C 64.8 °F /  18.2 °C 29.94in /  1013.8hPa SW 5.0mph /  8km/h 13.0mph /  20.9km/h 62% 0.00in /  0mm
13:34 78.8 °F /  26 °C 64.2 °F /  17.9 °C 29.94in /  1013.8hPa SW 6.0mph /  9.7km/h 13.0mph /  20.9km/h 61% 0.00in /  0mm
13:39 79.3 °F /  26.3 °C 66.1 °F /  18.9 °C 29.93in /  1013.4hPa WSW 6.0mph /  9.7km/h 12.0mph /  19.3km/h 64% 0.00in /  0mm
13:44 80.3 °F /  26.8 °C 65.6 °F /  18.7 °C 29.94in /  1013.8hPa SW 7.0mph /  11.3km/h 11.0mph /  17.7km/h 61% 0.00in /  0mm
13:49 79.7 °F /  26.5 °C 65.5 °F /  18.6 °C 29.93in /  1013.4hPa SW 6.0mph /  9.7km/h 13.0mph /  20.9km/h 62% 0.00in /  0mm
13:54 79.8 °F /  26.6 °C 64.7 °F /  18.2 °C 29.93in /  1013.4hPa WSW 5.0mph /  8km/h 11.0mph /  17.7km/h 60% 0.00in /  0mm
13:59 79.7 °F /  26.5 °C 64.6 °F /  18.1 °C 29.93in /  1013.4hPa SW 10.0mph /  16.1km/h 12.0mph /  19.3km/h 60% 0.00in /  0mm
14:04 79.8 °F /  26.6 °C 64.7 °F /  18.2 °C 29.93in /  1013.4hPa SW 6.0mph /  9.7km/h 14.0mph /  22.5km/h 60% 0.00in /  0mm
14:09 80.4 °F /  26.9 °C 64.8 °F /  18.2 °C 29.93in /  1013.4hPa SW 6.0mph /  9.7km/h 14.0mph /  22.5km/h 59% 0.00in /  0mm
14:14 80.3 °F /  26.8 °C 64.7 °F /  18.2 °C 29.93in /  1013.4hPa SW 6.0mph /  9.7km/h 13.0mph /  20.9km/h 59% 0.00in /  0mm
14:19 80.2 °F /  26.8 °C 65.1 °F /  18.4 °C 29.93in /  1013.4hPa SW 6.0mph /  9.7km/h 16.0mph /  25.7km/h 60% 0.00in /  0mm
14:24 79.6 °F /  26.4 °C 64.5 °F /  18.1 °C 29.93in /  1013.4hPa SW 7.0mph /  11.3km/h 16.0mph /  25.7km/h 60% 0.00in /  0mm
14:29 79.8 °F /  26.6 °C 64.7 °F /  18.2 °C 29.93in /  1013.4hPa WSW 6.0mph /  9.7km/h 12.0mph /  19.3km/h 60% 0.00in /  0mm
14:34 79.6 °F /  26.4 °C 64.5 °F /  18.1 °C 29.93in /  1013.4hPa WSW 7.0mph /  11.3km/h 13.0mph /  20.9km/h 60% 0.00in /  0mm
14:39 79.6 °F /  26.4 °C 64.5 °F /  18.1 °C 29.93in /  1013.4hPa West 7.0mph /  11.3km/h 14.0mph /  22.5km/h 60% 0.00in /  0mm
14:44 80.2 °F /  26.8 °C 65.1 °F /  18.4 °C 29.93in /  1013.4hPa SSW 8.0mph /  12.9km/h 13.0mph /  20.9km/h 60% 0.00in /  0mm
14:49 80.0 °F /  26.7 °C 64.9 °F /  18.3 °C 29.93in /  1013.4hPa SW 7.0mph /  11.3km/h 14.0mph /  22.5km/h 60% 0.00in /  0mm
14:54 79.6 °F /  26.4 °C 64.0 °F /  17.8 °C 29.92in /  1013.1hPa SW 12.0mph /  19.3km/h 13.0mph /  20.9km/h 59% 0.00in /  0mm
14:59 80.0 °F /  26.7 °C 64.9 °F /  18.3 °C 29.92in /  1013.1hPa WSW 6.0mph /  9.7km/h 12.0mph /  19.3km/h 60% 0.00in /  0mm
15:04 79.4 °F /  26.3 °C 64.8 °F /  18.2 °C 29.92in /  1013.1hPa SW 6.0mph /  9.7km/h 13.0mph /  20.9km/h 61% 0.00in /  0mm
15:09 79.4 °F /  26.3 °C 64.8 °F /  18.2 °C 29.92in /  1013.1hPa SW 7.0mph /  11.3km/h 14.0mph /  22.5km/h 61% 0.00in /  0mm
15:14 79.8 °F /  26.6 °C 65.2 °F /  18.4 °C 29.92in /  1013.1hPa WSW 7.0mph /  11.3km/h 16.0mph /  25.7km/h 61% 0.00in /  0mm
15:19 79.8 °F /  26.6 °C 64.2 °F /  17.9 °C 29.92in /  1013.1hPa West 6.0mph /  9.7km/h 13.0mph /  20.9km/h 59% 0.00in /  0mm
15:24 79.6 °F /  26.4 °C 64.0 °F /  17.8 °C 29.92in /  1013.1hPa WSW 9.0mph /  14.5km/h 13.0mph /  20.9km/h 59% 0.00in /  0mm
15:29 80.0 °F /  26.7 °C 64.4 °F /  18 °C 29.92in /  1013.1hPa WNW 8.0mph /  12.9km/h 13.0mph /  20.9km/h 59% 0.00in /  0mm
15:34 80.7 °F /  27.1 °C 65.5 °F /  18.6 °C 29.92in /  1013.1hPa SW 6.0mph /  9.7km/h 13.0mph /  20.9km/h 60% 0.00in /  0mm
15:39 79.7 °F /  26.5 °C 63.6 °F /  17.6 °C 29.92in /  1013.1hPa WSW 6.0mph /  9.7km/h 14.0mph /  22.5km/h 58% 0.00in /  0mm
15:44 78.7 °F /  25.9 °C 62.7 °F /  17.1 °C 29.92in /  1013.1hPa WSW 6.0mph /  9.7km/h 14.0mph /  22.5km/h 58% 0.00in /  0mm
15:49 78.6 °F /  25.9 °C 63.1 °F /  17.3 °C 29.93in /  1013.4hPa WSW 7.0mph /  11.3km/h 14.0mph /  22.5km/h 59% 0.00in /  0mm
15:54 78.0 °F /  25.6 °C 63.0 °F /  17.2 °C 29.92in /  1013.1hPa WSW 6.0mph /  9.7km/h 14.0mph /  22.5km/h 60% 0.00in /  0mm
15:59 77.7 °F /  25.4 °C 62.7 °F /  17.1 °C 29.92in /  1013.1hPa West 11.0mph /  17.7km/h 12.0mph /  19.3km/h 60% 0.00in /  0mm
16:04 77.9 °F /  25.5 °C 62.4 °F /  16.9 °C 29.92in /  1013.1hPa WNW 6.0mph /  9.7km/h 11.0mph /  17.7km/h 59% 0.00in /  0mm
16:09 78.9 °F /  26.1 °C 63.8 °F /  17.7 °C 29.92in /  1013.1hPa West 4.0mph /  6.4km/h 11.0mph /  17.7km/h 60% 0.00in /  0mm
16:14 79.4 °F /  26.3 °C 63.3 °F /  17.4 °C 29.92in /  1013.1hPa WNW 6.0mph /  9.7km/h 11.0mph /  17.7km/h 58% 0.00in /  0mm
16:19 79.9 °F /  26.6 °C 64.3 °F /  17.9 °C 29.92in /  1013.1hPa SW 8.0mph /  12.9km/h 11.0mph /  17.7km/h 59% 0.00in /  0mm
16:24 79.8 °F /  26.6 °C 64.2 °F /  17.9 °C 29.92in /  1013.1hPa WSW 4.0mph /  6.4km/h 12.0mph /  19.3km/h 59% 0.00in /  0mm
16:29 80.4 °F /  26.9 °C 64.3 °F /  17.9 °C 29.91in /  1012.8hPa WSW 5.0mph /  8km/h 12.0mph /  19.3km/h 58% 0.00in /  0mm
16:34 79.9 °F /  26.6 °C 63.8 °F /  17.7 °C 29.91in /  1012.8hPa SW 6.0mph /  9.7km/h 12.0mph /  19.3km/h 58% 0.00in /  0mm
16:39 79.8 °F /  26.6 °C 62.7 °F /  17.1 °C 29.91in /  1012.8hPa WSW 5.0mph /  8km/h 12.0mph /  19.3km/h 56% 0.00in /  0mm
16:44 79.0 °F /  26.1 °C 63.0 °F /  17.2 °C 29.91in /  1012.8hPa WSW 5.0mph /  8km/h 10.0mph /  16.1km/h 58% 0.00in /  0mm
16:49 79.5 °F /  26.4 °C 63.9 °F /  17.7 °C 29.91in /  1012.8hPa WSW 5.0mph /  8km/h 10.0mph /  16.1km/h 59% 0.00in /  0mm
16:54 79.5 °F /  26.4 °C 62.9 °F /  17.2 °C 29.91in /  1012.8hPa SW 8.0mph /  12.9km/h 11.0mph /  17.7km/h 57% 0.00in /  0mm
16:59 79.6 °F /  26.4 °C 64.0 °F /  17.8 °C 29.90in /  1012.4hPa West 5.0mph /  8km/h 10.0mph /  16.1km/h 59% 0.00in /  0mm
17:04 80.0 °F /  26.7 °C 62.9 °F /  17.2 °C 29.90in /  1012.4hPa WSW 6.0mph /  9.7km/h 13.0mph /  20.9km/h 56% 0.00in /  0mm
17:09 79.7 °F /  26.5 °C 62.1 °F /  16.7 °C 29.91in /  1012.8hPa West 6.0mph /  9.7km/h 13.0mph /  20.9km/h 55% 0.00in /  0mm
17:14 80.0 °F /  26.7 °C 63.4 °F /  17.4 °C 29.91in /  1012.8hPa WSW 6.0mph /  9.7km/h 13.0mph /  20.9km/h 57% 0.00in /  0mm
17:19 79.8 °F /  26.6 °C 63.2 °F /  17.3 °C 29.91in /  1012.8hPa SW 3.0mph /  4.8km/h 9.0mph /  14.5km/h 57% 0.00in /  0mm
17:24 79.4 °F /  26.3 °C 63.3 °F /  17.4 °C 29.91in /  1012.8hPa SSW 1.0mph /  1.6km/h 8.0mph /  12.9km/h 58% 0.00in /  0mm
17:29 78.4 °F /  25.8 °C 62.4 °F /  16.9 °C 29.91in /  1012.8hPa WSW 3.0mph /  4.8km/h 11.0mph /  17.7km/h 58% 0.00in /  0mm
17:34 78.7 °F /  25.9 °C 63.2 °F /  17.3 °C 29.90in /  1012.4hPa SW 5.0mph /  8km/h 11.0mph /  17.7km/h 59% 0.00in /  0mm
17:39 78.5 °F /  25.8 °C 63.0 °F /  17.2 °C 29.90in /  1012.4hPa WSW 2.0mph /  3.2km/h 10.0mph /  16.1km/h 59% 0.00in /  0mm
17:44 78.0 °F /  25.6 °C 62.5 °F /  16.9 °C 29.90in /  1012.4hPa WSW 4.0mph /  6.4km/h 7.0mph /  11.3km/h 59% 0.00in /  0mm
17:49 77.7 °F /  25.4 °C 62.7 °F /  17.1 °C 29.91in /  1012.8hPa SW 3.0mph /  4.8km/h 12.0mph /  19.3km/h 60% 0.00in /  0mm
17:54 77.5 °F /  25.3 °C 62.0 °F /  16.7 °C 29.90in /  1012.4hPa SW 6.0mph /  9.7km/h 10.0mph /  16.1km/h 59% 0.00in /  0mm
17:59 77.5 °F /  25.3 °C 63.0 °F /  17.2 °C 29.91in /  1012.8hPa SW 2.0mph /  3.2km/h 9.0mph /  14.5km/h 61% 0.00in /  0mm
18:04 77.6 °F /  25.3 °C 63.1 °F /  17.3 °C 29.90in /  1012.4hPa WSW 4.0mph /  6.4km/h 9.0mph /  14.5km/h 61% 0.00in /  0mm
18:09 77.1 °F /  25.1 °C 63.1 °F /  17.3 °C 29.90in /  1012.4hPa WSW 3.0mph /  4.8km/h 7.0mph /  11.3km/h 62% 0.00in /  0mm
18:14 77.2 °F /  25.1 °C 63.2 °F /  17.3 °C 29.90in /  1012.4hPa WSW 3.0mph /  4.8km/h 6.0mph /  9.7km/h 62% 0.00in /  0mm
18:19 77.0 °F /  25 °C 63.0 °F /  17.2 °C 29.91in /  1012.8hPa South 6.0mph /  9.7km/h 7.0mph /  11.3km/h 62% 0.00in /  0mm
18:24 76.5 °F /  24.7 °C 63.0 °F /  17.2 °C 29.91in /  1012.8hPa West 2.0mph /  3.2km/h 8.0mph /  12.9km/h 63% 0.00in /  0mm
18:29 76.2 °F /  24.6 °C 62.7 °F /  17.1 °C 29.91in /  1012.8hPa SW 3.0mph /  4.8km/h 6.0mph /  9.7km/h 63% 0.00in /  0mm
18:34 76.1 °F /  24.5 °C 63.0 °F /  17.2 °C 29.91in /  1012.8hPa SW 3.0mph /  4.8km/h 8.0mph /  12.9km/h 64% 0.00in /  0mm
18:39 75.8 °F /  24.3 °C 62.8 °F /  17.1 °C 29.92in /  1013.1hPa West 5.0mph /  8km/h 8.0mph /  12.9km/h 64% 0.00in /  0mm
18:44 75.8 °F /  24.3 °C 63.2 °F /  17.3 °C 29.92in /  1013.1hPa SSE 3.0mph /  4.8km/h 7.0mph /  11.3km/h 65% 0.00in /  0mm
18:49 75.7 °F /  24.3 °C 62.7 °F /  17.1 °C 29.92in /  1013.1hPa WSW 2.0mph /  3.2km/h 8.0mph /  12.9km/h 64% 0.00in /  0mm
18:54 75.7 °F /  24.3 °C 63.1 °F /  17.3 °C 29.92in /  1013.1hPa SW 1.0mph /  1.6km/h 5.0mph /  8km/h 65% 0.00in /  0mm
18:59 75.6 °F /  24.2 °C 63.0 °F /  17.2 °C 29.92in /  1013.1hPa SW 1.0mph /  1.6km/h 5.0mph /  8km/h 65% 0.00in /  0mm
19:04 75.6 °F /  24.2 °C 63.4 °F /  17.4 °C 29.92in /  1013.1hPa WSW 2.0mph /  3.2km/h 5.0mph /  8km/h 66% 0.00in /  0mm
19:09 75.5 °F /  24.2 °C 62.9 °F /  17.2 °C 29.92in /  1013.1hPa WSW 2.0mph /  3.2km/h 5.0mph /  8km/h 65% 0.00in /  0mm
19:14 75.5 °F /  24.2 °C 62.9 °F /  17.2 °C 29.92in /  1013.1hPa SW 1.0mph /  1.6km/h 3.0mph /  4.8km/h 65% 0.00in /  0mm
19:19 75.5 °F /  24.2 °C 62.9 °F /  17.2 °C 29.92in /  1013.1hPa SW 2.0mph /  3.2km/h 3.0mph /  4.8km/h 65% 0.00in /  0mm
19:24 75.3 °F /  24.1 °C 62.7 °F /  17.1 °C 29.92in /  1013.1hPa SW 1.0mph /  1.6km/h 4.0mph /  6.4km/h 65% 0.00in /  0mm
19:29 75.3 °F /  24.1 °C 62.7 °F /  17.1 °C 29.92in /  1013.1hPa West 3.0mph /  4.8km/h 5.0mph /  8km/h 65% 0.00in /  0mm
19:34 75.3 °F /  24.1 °C 63.2 °F /  17.3 °C 29.92in /  1013.1hPa WSW 2.0mph /  3.2km/h 5.0mph /  8km/h 66% 0.00in /  0mm
19:39 75.3 °F /  24.1 °C 63.2 °F /  17.3 °C 29.93in /  1013.4hPa Calm   4.0mph /  6.4km/h 66% 0.00in /  0mm
19:44 75.2 °F /  24 °C 63.1 °F /  17.3 °C 29.93in /  1013.4hPa WSW 2.0mph /  3.2km/h 4.0mph /  6.4km/h 66% 0.00in /  0mm
19:49 75.3 °F /  24.1 °C 63.6 °F /  17.6 °C 29.93in /  1013.4hPa WNW 2.0mph /  3.2km/h 5.0mph /  8km/h 67% 0.00in /  0mm
19:54 75.1 °F /  23.9 °C 63.0 °F /  17.2 °C 29.93in /  1013.4hPa Calm   4.0mph /  6.4km/h 66% 0.00in /  0mm
19:59 75.0 °F /  23.9 °C 62.9 °F /  17.2 °C 29.93in /  1013.4hPa West 2.0mph /  3.2km/h 4.0mph /  6.4km/h 66% 0.00in /  0mm
20:04 74.9 °F /  23.8 °C 63.2 °F /  17.3 °C 29.93in /  1013.4hPa WNW 1.0mph /  1.6km/h 4.0mph /  6.4km/h 67% 0.00in /  0mm
20:09 74.9 °F /  23.8 °C 63.2 °F /  17.3 °C 29.93in /  1013.4hPa West 1.0mph /  1.6km/h 3.0mph /  4.8km/h 67% 0.00in /  0mm
20:14 74.9 °F /  23.8 °C 62.8 °F /  17.1 °C 29.93in /  1013.4hPa West 1.0mph /  1.6km/h 3.0mph /  4.8km/h 66% 0.00in /  0mm
20:19 74.7 °F /  23.7 °C 63.0 °F /  17.2 °C 29.92in /  1013.1hPa West 1.0mph /  1.6km/h 4.0mph /  6.4km/h 67% 0.00in /  0mm
20:24 74.6 °F /  23.7 °C 62.9 °F /  17.2 °C 29.92in /  1013.1hPa West 3.0mph /  4.8km/h 3.0mph /  4.8km/h 67% 0.00in /  0mm
20:29 74.5 °F /  23.6 °C 62.8 °F /  17.1 °C 29.92in /  1013.1hPa West 1.0mph /  1.6km/h 3.0mph /  4.8km/h 67% 0.00in /  0mm
20:34 74.5 °F /  23.6 °C 63.2 °F /  17.3 °C 29.92in /  1013.1hPa West 1.0mph /  1.6km/h 3.0mph /  4.8km/h 68% 0.00in /  0mm
20:39 74.5 °F /  23.6 °C 63.2 °F /  17.3 °C 29.92in /  1013.1hPa Calm   3.0mph /  4.8km/h 68% 0.00in /  0mm
20:44 74.5 °F /  23.6 °C 63.2 °F /  17.3 °C 29.92in /  1013.1hPa Calm     68% 0.00in /  0mm
20:49 74.2 °F /  23.4 °C 63.0 °F /  17.2 °C 29.92in /  1013.1hPa Calm     68% 0.00in /  0mm
20:54 74.1 °F /  23.4 °C 63.7 °F /  17.6 °C 29.92in /  1013.1hPa Calm     70% 0.00in /  0mm
20:59 74.0 °F /  23.3 °C 64.0 °F /  17.8 °C 29.92in /  1013.1hPa Calm     71% 0.00in /  0mm
21:04 73.4 °F /  23 °C 64.2 °F /  17.9 °C 29.92in /  1013.1hPa Calm     73% 0.00in /  0mm
21:09 73.0 °F /  22.8 °C 63.8 °F /  17.7 °C 29.92in /  1013.1hPa Calm     73% 0.00in /  0mm
21:14 72.4 °F /  22.4 °C 64.0 °F /  17.8 °C 29.92in /  1013.1hPa Calm     75% 0.00in /  0mm
21:19 72.4 °F /  22.4 °C 64.0 °F /  17.8 °C 29.92in /  1013.1hPa Calm     75% 0.00in /  0mm
21:24 72.6 °F /  22.6 °C 63.8 °F /  17.7 °C 29.92in /  1013.1hPa Calm     74% 0.00in /  0mm
21:29 72.7 °F /  22.6 °C 64.3 °F /  17.9 °C 29.92in /  1013.1hPa Calm     75% 0.00in /  0mm
21:34 72.6 °F /  22.6 °C 64.2 °F /  17.9 °C 29.92in /  1013.1hPa Calm   3.0mph /  4.8km/h 75% 0.00in /  0mm
21:39 72.4 °F /  22.4 °C 64.0 °F /  17.8 °C 29.92in /  1013.1hPa Calm   3.0mph /  4.8km/h 75% 0.00in /  0mm
21:44 72.0 °F /  22.2 °C 64.0 °F /  17.8 °C 29.92in /  1013.1hPa SW 1.0mph /  1.6km/h 3.0mph /  4.8km/h 76% 0.00in /  0mm
21:49 71.8 °F /  22.1 °C 64.2 °F /  17.9 °C 29.93in /  1013.4hPa Calm   2.0mph /  3.2km/h 77% 0.00in /  0mm
21:54 71.8 °F /  22.1 °C 64.2 °F /  17.9 °C 29.93in /  1013.4hPa Calm     77% 0.00in /  0mm
21:59 71.6 °F /  22 °C 64.0 °F /  17.8 °C 29.93in /  1013.4hPa Calm     77% 0.00in /  0mm
22:04 71.5 °F /  21.9 °C 63.9 °F /  17.7 °C 29.93in /  1013.4hPa Calm     77% 0.00in /  0mm
22:09 71.3 °F /  21.8 °C 64.1 °F /  17.8 °C 29.93in /  1013.4hPa Calm     78% 0.00in /  0mm
22:14 71.3 °F /  21.8 °C 64.1 °F /  17.8 °C 29.93in /  1013.4hPa Calm     78% 0.00in /  0mm
22:19 71.3 °F /  21.8 °C 64.4 °F /  18 °C 29.94in /  1013.8hPa Calm   2.0mph /  3.2km/h 79% 0.00in /  0mm
22:24 71.4 °F /  21.9 °C 64.2 °F /  17.9 °C 29.93in /  1013.4hPa Calm     78% 0.00in /  0mm
22:29 71.4 °F /  21.9 °C 64.5 °F /  18.1 °C 29.93in /  1013.4hPa Calm     79% 0.00in /  0mm
22:34 71.1 °F /  21.7 °C 65.0 °F /  18.3 °C 29.93in /  1013.4hPa Calm     81% 0.01in /  0.25mm
22:39 70.6 °F /  21.4 °C 64.8 °F /  18.2 °C 29.92in /  1013.1hPa Calm     82% 0.01in /  0.25mm
22:44 70.3 °F /  21.3 °C 64.9 °F /  18.3 °C 29.93in /  1013.4hPa Calm     83% 0.02in /  0.51mm
22:49 70.1 °F /  21.2 °C 65.4 °F /  18.6 °C 29.93in /  1013.4hPa Calm     85% 0.02in /  0.51mm
22:54 69.8 °F /  21 °C 65.1 °F /  18.4 °C 29.93in /  1013.4hPa Calm     85% 0.02in /  0.51mm
22:59 69.6 °F /  20.9 °C 65.2 °F /  18.4 °C 29.93in /  1013.4hPa Calm     86% 0.02in /  0.51mm
23:04 69.7 °F /  20.9 °C 65.7 °F /  18.7 °C 29.94in /  1013.8hPa SW 1.0mph /  1.6km/h 2.0mph /  3.2km/h 87% 0.02in /  0.51mm
23:09 69.6 °F /  20.9 °C 65.6 °F /  18.7 °C 29.94in /  1013.8hPa ESE 1.0mph /  1.6km/h 3.0mph /  4.8km/h 87% 0.02in /  0.51mm
23:14 69.6 °F /  20.9 °C 65.2 °F /  18.4 °C 29.94in /  1013.8hPa Calm   4.0mph /  6.4km/h 86% 0.02in /  0.51mm
23:19 69.8 °F /  21 °C 65.4 °F /  18.6 °C 29.94in /  1013.8hPa Calm   3.0mph /  4.8km/h 86% 0.02in /  0.51mm
23:24 69.8 °F /  21 °C 65.4 °F /  18.6 °C 29.94in /  1013.8hPa Calm   2.0mph /  3.2km/h 86% 0.02in /  0.51mm
23:29 69.8 °F /  21 °C 65.4 °F /  18.6 °C 29.94in /  1013.8hPa Calm     86% 0.02in /  0.51mm
23:34 69.6 °F /  20.9 °C 65.2 °F /  18.4 °C 29.94in /  1013.8hPa Calm     86% 0.01in /  0.25mm
23:39 69.5 °F /  20.8 °C 64.8 °F /  18.2 °C 29.94in /  1013.8hPa ENE 1.0mph /  1.6km/h 3.0mph /  4.8km/h 85% 0.01in /  0.25mm
23:44 69.5 °F /  20.8 °C 65.1 °F /  18.4 °C 29.93in /  1013.4hPa East 1.0mph /  1.6km/h 3.0mph /  4.8km/h 86% 0.00in /  0mm
23:49 69.3 °F /  20.7 °C 64.6 °F /  18.1 °C 29.93in /  1013.4hPa East 1.0mph /  1.6km/h 5.0mph /  8km/h 85% 0.00in /  0mm
23:54 69.2 °F /  20.7 °C 64.5 °F /  18.1 °C 29.93in /  1013.4hPa East 2.0mph /  3.2km/h 6.0mph /  9.7km/h 85% 0.00in /  0mm
23:59 69.2 °F /  20.7 °C 64.5 °F /  18.1 °C 29.93in /  1013.4hPa ESE 2.0mph /  3.2km/h 6.0mph /  9.7km/h 85% 0.00in /  0mm
Buffalo, New York, USA
Compliments of Weather Underground - 2.5 mb